Time;durP1;ratioP1;P1;durP2;ratioP2;P2;SDS_P1;SDS_P2;PMS_P1;PMS_P2;Temp;Humidity;BMP_temperature;BMP_pressure;BME280_temperature;BME280_humidity;BME280_pressure;Samples;Min_cycle;Max_cycle;Signal;HPM_P1;HPM_P2
2023/01/18 00:01:36;;;;;;;3.58;2.75;;;;;;;17.08;41.85;99001.28;5026086;28;20033;-60
2023/01/18 00:04:01;;;;;;;3.15;2.40;;;;;;;17.08;41.76;98995.91;5025886;28;20093;-59
2023/01/18 00:06:27;;;;;;;3.58;2.50;;;;;;;17.08;42.04;98991.38;5026014;28;20034;-59
2023/01/18 00:08:53;;;;;;;4.10;2.65;;;;;;;17.08;41.92;98993.22;5026149;28;20021;-59
2023/01/18 00:11:18;;;;;;;4.82;2.80;;;;;;;17.06;42.20;98993.41;5026038;28;20030;-59
2023/01/18 00:13:44;;;;;;;3.45;2.40;;;;;;;17.04;41.82;98989.28;5025921;28;20052;-58
2023/01/18 00:16:12;;;;;;;3.53;2.70;;;;;;;17.01;42.10;98987.00;5025989;28;20036;-59
2023/01/18 00:18:37;;;;;;;4.78;2.67;;;;;;;17.05;41.83;98996.31;5025216;28;20022;-59
2023/01/18 00:21:04;;;;;;;3.95;2.40;;;;;;;17.05;41.81;99001.69;5025920;28;20514;-59
2023/01/18 00:23:30;;;;;;;5.25;3.08;;;;;;;17.04;41.87;99003.53;5025404;28;20049;-59
2023/01/18 00:26:06;;;;;;;3.90;2.78;;;;;;;17.03;42.04;98999.16;5025860;28;20057;-59
2023/01/18 00:28:31;;;;;;;4.47;2.92;;;;;;;17.03;42.04;99004.53;5025826;28;20081;-60
2023/01/18 00:30:57;;;;;;;3.40;2.50;;;;;;;17.02;41.93;99005.56;5025752;28;20090;-59
2023/01/18 00:33:22;;;;;;;3.97;2.92;;;;;;;17.04;41.82;99005.41;5023486;28;20459;-59
2023/01/18 00:35:58;;;;;;;2.95;2.25;;;;;;;17.02;41.76;99018.19;5005704;28;20068;-59
2023/01/18 00:38:24;;;;;;;2.80;2.33;;;;;;;16.94;41.85;98987.78;5005780;28;20070;-61
2023/01/18 00:40:50;;;;;;;3.25;2.60;;;;;;;17.01;41.83;99003.09;5005900;28;20041;-59
2023/01/18 00:45:59;;;;;;;3.42;2.75;;;;;;;16.97;41.72;99000.00;5005959;28;20106;-60
2023/01/18 00:48:24;;;;;;;2.72;2.40;;;;;;;16.99;41.93;99014.88;5022840;28;20037;-59
2023/01/18 00:50:49;;;;;;;3.55;2.65;;;;;;;16.99;41.95;99014.03;5024509;28;20038;-59
2023/01/18 00:53:15;;;;;;;3.53;2.50;;;;;;;16.99;41.84;99008.66;5025245;28;20087;-60
2023/01/18 00:55:40;;;;;;;2.80;2.28;;;;;;;16.97;42.03;99003.50;5025219;28;20026;-59
2023/01/18 00:58:05;;;;;;;3.10;2.50;;;;;;;16.94;41.76;99009.25;5007675;28;20517;-59
2023/01/18 01:00:31;;;;;;;3.55;2.53;;;;;;;16.97;42.03;99016.94;5024901;28;20030;-59
2023/01/18 01:02:57;;;;;;;2.50;2.20;;;;;;;16.96;41.77;99007.22;5025394;28;20489;-59
2023/01/18 01:08:28;;;;;;;3.20;2.30;;;;;;;16.96;41.91;99014.44;4945330;29;20043;-59
2023/01/18 01:11:07;;;;;;;2.58;2.03;;;;;;;16.95;42.02;99019.00;4945222;29;20035;-59
2023/01/18 01:27:12;;;;;;;3.03;2.15;;;;;;;16.89;42.02;99009.06;4926113;29;20043;-59
2023/01/18 01:29:38;;;;;;;3.63;2.42;;;;;;;16.89;41.84;99016.28;4926127;29;20036;-59
2023/01/18 01:32:04;;;;;;;3.03;2.22;;;;;;;16.88;41.90;99018.13;4925867;29;20084;-59
2023/01/18 01:34:29;;;;;;;2.85;2.20;;;;;;;16.88;41.81;99014.63;4936926;29;20051;-60
2023/01/18 01:36:55;;;;;;;3.00;2.20;;;;;;;16.87;42.08;99021.03;4944691;29;20032;-59
2023/01/18 01:39:20;;;;;;;2.42;2.03;;;;;;;16.87;42.07;99021.03;4977543;28;20049;-60
2023/01/18 01:41:46;;;;;;;3.13;1.98;;;;;;;16.87;41.84;99019.19;5005096;28;20038;-60
2023/01/18 01:44:18;;;;;;;3.95;2.58;;;;;;;16.86;41.87;99020.19;4987594;28;20040;-60
2023/01/18 01:46:47;;;;;;;2.95;2.63;;;;;;;16.87;41.88;99021.03;5010185;28;20057;-59
2023/01/18 01:49:16;;;;;;;3.00;2.25;;;;;;;16.85;41.81;99021.22;5007223;28;20471;-60
2023/01/18 01:51:44;;;;;;;3.13;2.08;;;;;;;16.85;41.92;99026.59;5007265;28;20072;-60
2023/01/18 01:54:13;;;;;;;3.03;2.08;;;;;;;16.79;41.89;99013.97;5007203;28;20026;-59
2023/01/18 01:56:39;;;;;;;3.50;2.13;;;;;;;16.85;42.05;99028.44;5024566;28;20030;-60
2023/01/18 01:59:05;;;;;;;3.58;2.67;;;;;;;16.84;41.82;99024.13;5024544;28;20033;-59
2023/01/18 02:01:31;;;;;;;2.38;2.05;;;;;;;16.82;41.96;99028.84;5007113;28;20034;-59
2023/01/18 02:03:57;;;;;;;2.30;1.90;;;;;;;16.84;41.80;99029.47;5009862;28;20026;-59
2023/01/18 02:06:30;;;;;;;2.40;1.95;;;;;;;16.82;42.04;99032.38;5010778;28;20044;-60
2023/01/18 02:08:59;;;;;;;2.83;2.10;;;;;;;16.81;41.87;99028.00;5011782;28;20116;-60
2023/01/18 02:11:25;;;;;;;2.90;2.30;;;;;;;16.81;41.96;99036.06;5028424;28;20368;-59
2023/01/18 02:13:50;;;;;;;2.42;1.85;;;;;;;16.80;41.87;99033.59;5028404;28;20054;-59
2023/01/18 02:16:37;;;;;;;2.88;2.00;;;;;;;16.81;41.92;99035.25;4994147;28;20070;-59
2023/01/18 02:19:38;;;;;;;3.88;2.72;;;;;;;16.79;41.89;99040.81;5008693;28;20030;-60
2023/01/18 02:22:13;;;;;;;3.40;2.30;;;;;;;16.78;41.98;99038.31;4991275;28;20022;-59
2023/01/18 02:24:47;;;;;;;2.45;2.13;;;;;;;16.78;41.85;99044.53;5008456;28;20050;-60
2023/01/18 02:27:42;;;;;;;3.10;2.47;;;;;;;16.76;41.93;99041.22;4991024;28;20026;-60
2023/01/18 02:30:07;;;;;;;2.97;2.65;;;;;;;16.77;41.86;99047.41;5006915;28;20434;-60
2023/01/18 02:32:51;;;;;;;3.83;2.25;;;;;;;16.75;41.93;99042.25;5027812;28;20033;-60
2023/01/18 02:35:38;;;;;;;3.42;2.40;;;;;;;16.76;41.83;99043.06;5009948;28;20026;-59
2023/01/18 02:38:09;;;;;;;2.60;2.28;;;;;;;16.72;41.95;99051.50;4990854;28;20104;-60
2023/01/18 02:41:02;;;;;;;2.60;2.13;;;;;;;16.72;41.91;99053.34;5008147;28;20431;-60
2023/01/18 02:46:29;;;;;;;3.63;2.20;;;;;;;16.72;41.83;99056.03;4993430;28;20043;-59
2023/01/18 02:48:56;;;;;;;2.65;2.08;;;;;;;16.71;41.79;99063.25;5008018;28;20078;-60
2023/01/18 02:51:21;;;;;;;2.88;2.28;;;;;;;16.71;41.95;99063.25;4990685;28;20463;-59
2023/01/18 02:53:46;;;;;;;2.55;2.10;;;;;;;16.70;41.83;99066.16;5020919;28;20068;-59
2023/01/18 02:56:23;;;;;;;2.45;2.10;;;;;;;16.70;41.86;99066.16;5027412;28;20033;-60
2023/01/18 02:58:58;;;;;;;2.03;1.83;;;;;;;16.69;41.84;99067.16;5009874;28;20391;-59
2023/01/18 03:01:47;;;;;;;2.78;1.95;;;;;;;16.69;41.67;99067.16;5027318;28;20065;-59
2023/01/18 03:04:29;;;;;;;2.35;2.10;;;;;;;16.68;41.91;99074.38;5002318;28;20061;-59
2023/01/18 03:07:06;;;;;;;2.22;2.03;;;;;;;16.65;41.76;99068.56;5009713;28;20050;-60
2023/01/18 03:09:32;;;;;;;2.30;2.10;;;;;;;16.66;41.68;99071.06;5009885;28;20018;-60
2023/01/18 03:12:22;;;;;;;2.75;2.00;;;;;;;16.66;41.90;99075.63;5009647;28;20086;-60
2023/01/18 03:15:08;;;;;;;2.72;2.00;;;;;;;16.66;41.82;99078.28;5008513;28;20037;-57
2023/01/18 03:17:50;;;;;;;2.63;2.40;;;;;;;16.64;41.92;99075.78;5009728;28;20036;-59
2023/01/18 03:20:22;;;;;;;2.40;2.00;;;;;;;16.61;41.70;99072.69;4990265;28;20082;-59
2023/01/18 03:25:44;;;;;;;3.25;2.20;;;;;;;16.62;41.91;99077.88;5007473;28;20100;-59
2023/01/18 03:33:57;;;;;;;2.45;2.25;;;;;;;16.61;41.81;99075.34;4992822;28;20033;-59
2023/01/18 03:36:26;;;;;;;2.47;2.13;;;;;;;16.56;41.71;99075.13;5006969;28;20034;-59
2023/01/18 03:38:59;;;;;;;2.78;2.17;;;;;;;16.52;41.87;99068.50;4989463;28;20054;-59
2023/01/18 03:41:29;;;;;;;2.42;2.22;;;;;;;16.58;41.90;99081.13;4989559;28;20022;-59
2023/01/18 03:43:57;;;;;;;3.03;2.17;;;;;;;16.59;41.71;99088.16;5005790;28;20033;-59
2023/01/18 03:46:23;;;;;;;2.60;2.05;;;;;;;16.57;41.84;99090.22;5008798;28;20116;-59
2023/01/18 03:48:48;;;;;;;2.55;1.95;;;;;;;16.53;41.89;99083.59;5009254;28;20045;-59
2023/01/18 03:51:52;;;;;;;2.63;2.22;;;;;;;16.57;41.90;99092.91;5026519;28;20085;-59
2023/01/18 03:54:43;;;;;;;3.50;2.45;;;;;;;16.56;41.78;99094.72;5023718;28;20431;-59
2023/01/18 03:57:49;;;;;;;2.13;1.90;;;;;;;16.55;41.77;99085.03;5008733;28;20026;-59
2023/01/18 04:00:15;;;;;;;3.10;2.20;;;;;;;16.55;41.77;99094.94;4996362;28;20038;-59
2023/01/18 04:02:43;;;;;;;2.15;1.95;;;;;;;16.53;41.73;99089.78;5026319;28;20041;-59
2023/01/18 04:05:09;;;;;;;2.33;2.00;;;;;;;16.53;41.76;99097.84;5026127;28;20026;-59
2023/01/18 04:07:34;;;;;;;2.72;2.05;;;;;;;16.53;41.83;99100.50;5026168;28;20103;-59
2023/01/18 04:10:00;;;;;;;3.42;2.10;;;;;;;16.52;41.66;99104.19;5026090;28;20030;-59
2023/01/18 04:12:25;;;;;;;2.92;2.30;;;;;;;16.52;41.66;99109.56;5026158;28;20029;-59
2023/01/18 04:14:50;;;;;;;2.70;2.20;;;;;;;16.52;41.67;99106.88;5026127;28;20061;-59
2023/01/18 04:17:16;;;;;;;2.72;2.20;;;;;;;16.50;41.76;99103.59;5025691;28;20093;-59
2023/01/18 04:19:41;;;;;;;3.30;2.33;;;;;;;16.50;41.51;99107.09;5025609;28;20030;-59
2023/01/18 04:22:07;;;;;;;3.38;2.53;;;;;;;16.46;41.76;99099.63;5026006;28;20474;-60
2023/01/18 04:24:33;;;;;;;3.30;2.38;;;;;;;16.49;41.62;99104.63;5026030;28;20044;-59
2023/01/18 04:26:58;;;;;;;2.33;2.10;;;;;;;16.49;41.72;99116.16;5025645;28;20034;-59
2023/01/18 04:29:23;;;;;;;2.45;2.22;;;;;;;16.48;41.69;99113.66;5025912;28;20026;-59
2023/01/18 04:31:49;;;;;;;3.58;2.53;;;;;;;16.48;41.78;99114.53;5025703;28;20026;-59
2023/01/18 04:34:14;;;;;;;3.78;2.40;;;;;;;16.45;41.72;99125.63;5025553;28;20026;-59
2023/01/18 04:36:39;;;;;;;3.17;2.20;;;;;;;16.47;41.57;99120.88;5025018;28;20049;-59
2023/01/18 04:39:05;;;;;;;3.38;2.95;;;;;;;16.44;41.57;99118.63;5025427;28;20053;-59
2023/01/18 04:41:30;;;;;;;2.88;2.28;;;;;;;16.42;41.45;99119.81;5025796;28;20038;-59
2023/01/18 04:43:55;;;;;;;2.83;2.05;;;;;;;16.47;41.48;99136.16;5025651;28;20038;-59
2023/01/18 04:46:20;;;;;;;2.90;2.45;;;;;;;16.47;41.44;99134.28;5025646;28;20069;-59
2023/01/18 04:48:52;;;;;;;2.33;2.10;;;;;;;16.47;41.62;99125.44;5025791;28;20117;-60
2023/01/18 04:51:17;;;;;;;3.15;2.80;;;;;;;16.42;41.46;99120.66;5025544;28;20105;-59
2023/01/18 04:53:43;;;;;;;2.83;2.10;;;;;;;16.46;41.57;99132.66;5025564;28;20056;-59
2023/01/18 04:56:09;;;;;;;3.20;2.58;;;;;;;16.47;41.46;99136.16;5016626;28;20034;-59
2023/01/18 04:58:34;;;;;;;4.47;2.50;;;;;;;16.43;41.53;99127.66;5011900;28;20098;-59
2023/01/18 05:01:04;;;;;;;2.28;2.08;;;;;;;16.46;41.59;99140.69;5005508;28;20030;-59
2023/01/18 05:03:30;;;;;;;4.57;2.60;;;;;;;16.46;41.30;99137.19;5005787;28;20034;-59
2023/01/18 05:05:55;;;;;;;3.45;2.35;;;;;;;16.45;41.46;99139.03;5005113;28;20057;-59
2023/01/18 05:08:21;;;;;;;2.17;1.95;;;;;;;16.45;41.52;99140.91;5023077;28;20049;-60
2023/01/18 05:10:46;;;;;;;2.78;2.25;;;;;;;16.44;41.41;99141.94;5024888;28;20469;-59
2023/01/18 05:13:11;;;;;;;3.17;2.42;;;;;;;16.45;41.54;99141.72;5025178;28;20479;-59
2023/01/18 05:15:37;;;;;;;2.25;2.08;;;;;;;16.42;41.37;99147.47;5024602;28;20030;-59
2023/01/18 05:18:02;;;;;;;2.97;2.30;;;;;;;16.44;41.30;99142.75;5025010;28;20037;-59
2023/01/18 05:20:28;;;;;;;3.28;2.38;;;;;;;16.45;41.47;99146.25;5024840;28;20026;-59
2023/01/18 05:22:53;;;;;;;2.63;2.05;;;;;;;16.44;41.19;99144.63;5024744;28;20105;-59
2023/01/18 05:25:18;;;;;;;2.45;2.22;;;;;;;16.43;41.31;99154.50;5024715;28;20038;-59
2023/01/18 05:27:43;;;;;;;2.97;2.50;;;;;;;16.44;41.35;99152.66;5024939;28;20389;-59
2023/01/18 05:30:10;;;;;;;2.35;2.15;;;;;;;16.43;41.48;99154.50;5024683;28;20487;-59
2023/01/18 05:32:35;;;;;;;3.13;2.80;;;;;;;16.42;41.46;99154.69;5024786;28;20026;-59
2023/01/18 05:35:02;;;;;;;3.63;2.92;;;;;;;16.42;41.40;99160.88;5023885;28;20032;-59
2023/01/18 05:37:27;;;;;;;4.88;2.72;;;;;;;16.41;41.71;99161.91;5024940;28;20036;-60
2023/01/18 05:39:52;;;;;;;2.80;2.25;;;;;;;16.42;41.47;99154.69;5025957;28;20042;-59
2023/01/18 05:42:18;;;;;;;2.45;2.25;;;;;;;16.42;41.44;99158.19;5025405;28;20129;-59
2023/01/18 05:44:43;;;;;;;2.45;2.25;;;;;;;16.42;41.51;99158.19;5023552;28;20022;-59
2023/01/18 05:47:08;;;;;;;3.17;2.33;;;;;;;16.41;41.55;99153.03;5026695;28;20030;-59
2023/01/18 05:49:34;;;;;;;4.05;2.30;;;;;;;16.44;41.61;99169.59;5027910;28;20053;-59
2023/01/18 05:51:59;;;;;;;5.82;2.70;;;;;;;16.45;41.89;99167.72;5028014;28;20529;-59
2023/01/18 05:54:24;;;;;;;2.83;2.22;;;;;;;16.44;41.94;99164.22;5028653;28;20025;-59
2023/01/18 05:56:49;;;;;;;2.50;2.30;;;;;;;16.46;42.03;99172.06;5027678;28;20037;-59
2023/01/18 05:59:15;;;;;;;2.90;2.60;;;;;;;16.46;42.18;99172.88;5028167;28;20021;-59
2023/01/18 06:01:41;;;;;;;2.50;2.28;;;;;;;16.46;42.11;99175.56;5027265;28;20028;-59
2023/01/18 06:04:06;;;;;;;3.15;2.45;;;;;;;16.47;42.23;99179.06;5026055;28;20052;-60
2023/01/18 06:06:31;;;;;;;2.72;2.10;;;;;;;16.47;42.31;99185.28;5026868;28;20029;-59
2023/01/18 06:08:57;;;;;;;2.85;2.42;;;;;;;16.46;42.19;99180.94;5025599;28;20474;-59
2023/01/18 06:11:22;;;;;;;3.15;2.35;;;;;;;16.47;42.19;99187.94;5027281;28;20064;-58
2023/01/18 06:13:48;;;;;;;3.33;2.53;;;;;;;16.47;42.48;99187.13;5027768;28;20013;-59
2023/01/18 06:16:13;;;;;;;3.03;2.70;;;;;;;16.49;42.48;99195.81;5027363;28;20032;-59
2023/01/18 06:18:40;;;;;;;2.97;2.70;;;;;;;16.48;42.45;99188.78;5027280;28;20030;-58
2023/01/18 06:21:06;;;;;;;3.00;2.35;;;;;;;16.50;42.47;99192.09;5027475;28;20022;-59
2023/01/18 06:23:32;;;;;;;3.60;2.40;;;;;;;16.49;42.35;99195.81;5027498;28;20036;-59
2023/01/18 06:25:57;;;;;;;3.15;2.55;;;;;;;16.48;42.48;99203.03;5020841;28;20086;-59
2023/01/18 06:28:23;;;;;;;2.58;2.35;;;;;;;16.48;42.63;99205.72;5020961;28;20086;-57
2023/01/18 06:30:51;;;;;;;4.68;2.40;;;;;;;16.50;42.61;99210.88;5002316;28;20081;-61
2023/01/18 06:33:16;;;;;;;3.63;2.28;;;;;;;16.50;42.70;99208.19;5025058;28;20021;-64
2023/01/18 06:35:42;;;;;;;2.60;2.30;;;;;;;16.50;42.67;99214.41;5026306;28;20026;-60
2023/01/18 06:38:08;;;;;;;2.83;2.28;;;;;;;16.52;42.67;99213.38;5026866;28;20596;-56
2023/01/18 06:40:33;;;;;;;3.40;2.38;;;;;;;16.52;42.68;99216.88;5027210;28;20057;-57
2023/01/18 06:42:58;;;;;;;2.83;2.30;;;;;;;16.52;42.62;99218.72;5027506;28;20026;-55
2023/01/18 06:45:25;;;;;;;4.07;2.10;;;;;;;16.53;42.61;99223.09;5024359;28;20066;-56
2023/01/18 06:47:51;;;;;;;2.90;2.30;;;;;;;16.53;42.68;99229.28;5017710;28;20037;-57
2023/01/18 06:50:17;;;;;;;3.65;2.40;;;;;;;16.55;42.42;99229.09;5015992;28;20037;-54
2023/01/18 06:52:43;;;;;;;3.13;2.30;;;;;;;16.55;42.58;99234.44;5017941;28;20398;-55
2023/01/18 06:55:10;;;;;;;2.85;2.42;;;;;;;16.55;42.46;99240.63;5017076;28;20025;-54
2023/01/18 06:57:35;;;;;;;3.95;2.25;;;;;;;16.52;42.55;99237.50;5018533;28;20061;-49
2023/01/18 07:00:04;;;;;;;3.90;2.55;;;;;;;16.54;42.57;99247.03;5016019;28;20034;-56
2023/01/18 07:02:30;;;;;;;3.72;2.40;;;;;;;16.53;42.38;99249.94;5016508;28;20030;-55
2023/01/18 07:04:56;;;;;;;3.05;2.60;;;;;;;16.55;42.26;99253.22;5017346;28;20029;-54
2023/01/18 07:07:21;;;;;;;2.60;2.20;;;;;;;16.55;42.34;99245.19;5016014;28;20076;-55
2023/01/18 07:09:46;;;;;;;3.03;2.40;;;;;;;16.52;42.19;99261.66;5016883;28;20037;-52
2023/01/18 07:12:12;;;;;;;3.78;3.00;;;;;;;16.51;42.36;99252.78;5017351;28;20026;-56
2023/01/18 07:14:37;;;;;;;2.47;2.20;;;;;;;16.55;42.41;99266.66;5012777;28;20030;-54
2023/01/18 07:17:03;;;;;;;7.13;2.72;;;;;;;16.53;42.40;99271.38;5007015;28;20068;-57
2023/01/18 07:19:28;;;;;;;3.30;2.45;;;;;;;16.53;42.39;99274.06;5007266;28;20057;-58
2023/01/18 07:21:54;;;;;;;5.00;2.78;;;;;;;16.51;42.55;99276.94;5006856;28;20030;-58
2023/01/18 07:24:19;;;;;;;3.08;2.35;;;;;;;16.51;42.29;99274.25;5007094;28;20026;-58
2023/01/18 07:26:44;;;;;;;3.25;2.40;;;;;;;16.49;42.36;99282.50;5007049;28;20027;-58
2023/01/18 07:29:10;;;;;;;8.95;2.53;;;;;;;16.46;42.43;99284.72;5022230;28;20038;-58
2023/01/18 07:31:37;;;;;;;3.05;2.47;;;;;;;16.47;42.37;99286.38;5008439;28;20040;-58
2023/01/18 07:34:02;;;;;;;3.58;2.30;;;;;;;16.46;42.12;99296.28;5026194;28;20048;-58
2023/01/18 07:36:28;;;;;;;2.80;2.10;;;;;;;16.45;42.23;99288.44;5026334;28;20053;-58
2023/01/18 07:38:53;;;;;;;3.90;2.53;;;;;;;16.45;42.19;99291.94;5025828;28;20116;-58
2023/01/18 07:41:19;;;;;;;5.93;2.50;;;;;;;16.42;42.15;99292.31;5026299;28;20096;-57
2023/01/18 07:43:44;;;;;;;2.47;2.20;;;;;;;16.44;41.94;99287.63;5026438;28;20072;-60
2023/01/18 07:46:13;;;;;;;4.55;3.35;;;;;;;16.38;41.96;99284.84;5026011;28;20081;-58
2023/01/18 07:48:38;;;;;;;3.70;2.60;;;;;;;16.41;41.98;99293.34;5026502;28;20045;-56
2023/01/18 07:51:05;;;;;;;3.88;2.20;;;;;;;16.40;41.70;99296.25;5026146;28;20061;-58
2023/01/18 07:53:32;;;;;;;3.22;2.45;;;;;;;16.43;41.66;99302.03;5026297;28;20032;-58
2023/01/18 07:56:01;;;;;;;2.85;2.50;;;;;;;16.41;41.74;99296.03;5025627;28;20106;-58
2023/01/18 07:58:27;;;;;;;3.35;2.38;;;;;;;16.41;41.72;99305.94;5025978;28;20022;-58
2023/01/18 08:00:52;;;;;;;2.67;2.45;;;;;;;16.40;41.72;99310.47;5025450;28;20026;-58
2023/01/18 08:03:18;;;;;;;5.28;3.50;;;;;;;16.37;41.76;99305.47;5025936;28;20032;-59
2023/01/18 08:05:44;;;;;;;4.60;3.17;;;;;;;16.40;41.67;99310.47;5025394;28;20026;-59
2023/01/18 08:08:11;;;;;;;4.30;2.47;;;;;;;16.40;42.02;99305.09;5008266;28;20036;-59
2023/01/18 08:10:37;;;;;;;4.10;2.58;;;;;;;16.43;42.01;99312.75;5025660;28;20522;-57
2023/01/18 08:13:04;;;;;;;3.58;2.50;;;;;;;16.44;42.01;99313.59;5025964;28;20033;-59
2023/01/18 08:15:30;;;;;;;10.77;2.92;;;;;;;16.45;42.13;99317.94;5025428;28;20022;-59
2023/01/18 08:17:55;;;;;;;4.28;3.20;;;;;;;16.46;42.19;99330.31;5024999;28;20033;-59
2023/01/18 08:20:20;;;;;;;2.67;2.20;;;;;;;16.48;41.96;99326.44;5025249;28;20034;-59
2023/01/18 08:22:46;;;;;;;3.30;2.65;;;;;;;16.50;41.87;99329.75;5025438;28;20021;-59
2023/01/18 08:25:12;;;;;;;3.03;2.60;;;;;;;16.52;41.75;99329.56;5025132;28;20033;-58
2023/01/18 08:27:37;;;;;;;3.05;2.47;;;;;;;16.53;41.69;99333.09;5025034;28;20034;-59
2023/01/18 08:30:04;;;;;;;3.13;2.53;;;;;;;16.55;41.55;99333.72;5024680;28;20065;-58
2023/01/18 08:32:29;;;;;;;3.88;2.55;;;;;;;16.56;41.87;99332.69;5025042;28;20022;-59
2023/01/18 08:34:55;;;;;;;3.65;2.30;;;;;;;16.52;41.53;99336.78;5023801;28;20018;-59
2023/01/18 08:37:22;;;;;;;3.13;2.47;;;;;;;16.57;41.59;99342.41;5025139;28;20108;-59
2023/01/18 08:39:47;;;;;;;3.17;2.63;;;;;;;16.56;41.63;99344.25;5024300;28;20101;-59
2023/01/18 08:42:13;;;;;;;3.05;2.40;;;;;;;16.57;41.61;99347.78;5024695;28;20037;-59
2023/01/18 08:44:38;;;;;;;2.72;2.25;;;;;;;16.61;41.56;99349.91;5025033;28;20034;-59
2023/01/18 08:47:03;;;;;;;3.03;2.30;;;;;;;16.62;41.40;99351.56;5024647;28;20030;-59
2023/01/18 08:49:31;;;;;;;4.50;3.05;;;;;;;16.65;41.36;99353.00;5025193;28;20437;-60
2023/01/18 08:51:57;;;;;;;2.95;2.25;;;;;;;16.66;41.35;99360.06;5024894;28;20052;-60
2023/01/18 08:54:23;;;;;;;3.97;2.63;;;;;;;16.69;41.20;99352.44;5024155;28;20386;-59
2023/01/18 08:56:48;;;;;;;2.47;2.20;;;;;;;16.71;41.19;99358.44;5024362;28;20033;-59
2023/01/18 08:59:13;;;;;;;2.97;2.50;;;;;;;16.76;40.91;99365.13;5023712;28;20026;-59
2023/01/18 09:01:39;;;;;;;4.50;2.58;;;;;;;16.77;41.15;99372.97;5014200;28;20129;-61
2023/01/18 09:04:04;;;;;;;3.00;2.45;;;;;;;16.78;41.33;99373.81;5016048;28;20036;-61
2023/01/18 09:06:30;;;;;;;3.63;2.78;;;;;;;16.77;41.57;99372.97;5016253;28;20060;-61
2023/01/18 09:08:56;;;;;;;3.47;2.72;;;;;;;16.77;41.82;99378.34;5020566;28;20061;-62
2023/01/18 09:11:22;;;;;;;3.42;2.63;;;;;;;16.72;41.84;99368.19;5009048;28;20094;-59
2023/01/18 09:13:47;;;;;;;3.95;3.05;;;;;;;16.82;41.48;99381.31;5022359;28;20109;-60
2023/01/18 09:16:13;;;;;;;4.82;2.60;;;;;;;16.85;41.61;99382.75;5024592;28;20037;-59
2023/01/18 09:18:38;;;;;;;7.03;2.60;;;;;;;16.83;41.52;99372.22;5024403;28;20028;-53
2023/01/18 09:21:08;;;;;;;3.72;2.60;;;;;;;16.80;41.53;99367.22;5024468;28;20030;-60
2023/01/18 09:23:35;;;;;;;3.60;2.50;;;;;;;16.89;41.61;99384.84;5020943;28;20045;-59
2023/01/18 09:26:06;;;;;;;4.13;2.75;;;;;;;16.93;41.58;99390.69;5015272;28;20037;-61
2023/01/18 09:28:31;;;;;;;4.38;2.80;;;;;;;16.92;41.56;99397.09;5024124;28;20028;-59
2023/01/18 09:31:01;;;;;;;4.40;2.60;;;;;;;16.94;41.38;99395.84;5023681;28;20460;-59
2023/01/18 09:33:27;;;;;;;5.25;2.92;;;;;;;16.96;41.30;99401.03;5024768;28;20513;-59
2023/01/18 09:35:54;;;;;;;3.55;2.30;;;;;;;16.97;41.41;99403.53;5024147;28;20025;-60
2023/01/18 09:38:19;;;;;;;3.90;2.50;;;;;;;16.95;41.23;99400.22;5023307;28;20042;-59
2023/01/18 09:40:45;;;;;;;5.20;2.83;;;;;;;17.00;41.13;99407.69;5023528;28;20076;-57
2023/01/18 09:43:34;;;;;;;2.55;2.22;;;;;;;17.00;41.07;99405.00;5024175;28;20049;-60
2023/01/18 09:46:00;;;;;;;;;;;;;;;17.00;41.14;99407.69;5024531;28;20041;-60
2023/01/18 09:48:31;;;;;;;4.75;3.05;;;;;;;16.99;41.10;99401.50;5024290;28;19917;-59
2023/01/18 09:51:06;;;;;;;4.22;2.50;;;;;;;16.98;40.90;99409.72;5006611;28;20037;-59
2023/01/18 09:53:50;;;;;;;2.65;2.42;;;;;;;16.96;40.92;99419.84;5024942;28;20056;-59
2023/01/18 09:56:29;;;;;;;3.83;2.40;;;;;;;16.96;40.77;99417.97;5024271;28;20029;-57
2023/01/18 09:59:13;;;;;;;;;;;;;;;16.95;40.48;99419.00;5007358;28;20036;-59
2023/01/18 10:01:38;;;;;;;3.72;3.00;;;;;;;16.93;40.64;99421.03;5024280;28;19913;-59
2023/01/18 10:04:24;;;;;;;2.58;2.00;;;;;;;16.93;40.58;99423.72;5006771;28;20030;-59
2023/01/18 10:07:01;;;;;;;3.78;2.53;;;;;;;16.93;40.52;99425.59;5006848;28;20025;-59
2023/01/18 10:09:43;;;;;;;3.38;2.60;;;;;;;16.91;40.48;99425.78;5007106;28;20037;-59
2023/01/18 10:12:36;;;;;;;3.28;2.42;;;;;;;16.90;40.42;99428.63;5024532;28;20073;-59
2023/01/18 10:15:22;;;;;;;3.05;2.78;;;;;;;16.89;40.56;99426.97;5024620;28;20029;-59
2023/01/18 10:17:52;;;;;;;2.95;2.40;;;;;;;16.89;40.45;99429.66;5023792;28;20114;-59
2023/01/18 10:21:00;;;;;;;3.10;2.80;;;;;;;16.87;40.36;99429.88;5007039;28;20037;-59
2023/01/18 10:23:39;;;;;;;3.43;2.60;;;;;;;16.88;40.25;99428.84;4928903;29;20036;-59
2023/01/18 10:26:08;;;;;;;5.32;2.58;;;;;;;16.83;40.41;99417.84;4947970;29;20074;-60
2023/01/18 10:28:49;;;;;;;3.97;3.22;;;;;;;16.87;40.38;99429.03;4931577;29;20491;-59
2023/01/18 10:31:28;;;;;;;3.33;2.42;;;;;;;16.88;40.39;99425.34;4932050;29;20091;-59
2023/01/18 10:33:55;;;;;;;;;;;;;;;16.88;40.09;99428.84;4948149;29;20039;-59
2023/01/18 10:36:37;;;;;;;3.70;2.50;;;;;;;16.89;40.54;99426.97;4947916;29;19961;-60
2023/01/18 10:39:06;;;;;;;4.63;2.97;;;;;;;16.87;40.19;99424.50;4947497;29;20047;-59
2023/01/18 10:41:35;;;;;;;3.35;2.85;;;;;;;16.89;40.05;99430.50;4931964;29;20114;-59
2023/01/18 10:44:01;;;;;;;3.58;2.50;;;;;;;16.90;40.35;99429.47;4947744;29;20087;-59
2023/01/18 10:46:26;;;;;;;4.35;2.53;;;;;;;16.91;40.14;99424.97;4947458;29;20036;-61
2023/01/18 10:48:53;;;;;;;3.13;2.20;;;;;;;16.89;40.21;99427.81;4947736;29;20063;-58
2023/01/18 10:51:37;;;;;;;3.20;2.65;;;;;;;16.88;40.25;99428.84;4947468;29;20040;-59
2023/01/18 10:54:24;;;;;;;3.80;2.67;;;;;;;16.88;40.23;99426.16;4947556;29;20023;-59
2023/01/18 10:57:01;;;;;;;3.42;2.72;;;;;;;16.88;40.13;99436.06;4956071;28;20072;-59
2023/01/18 10:59:33;;;;;;;2.97;2.17;;;;;;;16.86;40.28;99436.25;5027357;28;20036;-58
2023/01/18 11:01:59;;;;;;;3.15;2.40;;;;;;;16.90;40.14;99439.38;5009310;28;20050;-59
2023/01/18 11:04:29;;;;;;;3.40;2.50;;;;;;;16.89;40.11;99435.88;5027059;28;20034;-59
2023/01/18 11:06:59;;;;;;;3.83;2.55;;;;;;;16.92;40.28;99431.97;5009101;28;20026;-60
2023/01/18 11:09:50;;;;;;;3.72;2.58;;;;;;;16.91;40.39;99433.84;5007577;28;20053;-59
2023/01/18 11:12:44;;;;;;;3.03;2.50;;;;;;;16.91;40.48;99439.22;5026430;28;20026;-59
2023/01/18 11:15:12;;;;;;;3.28;2.80;;;;;;;16.93;40.66;99434.47;5026111;28;20084;-59
2023/01/18 11:17:41;;;;;;;4.88;2.78;;;;;;;16.93;40.66;99444.38;5026750;28;20482;-59
2023/01/18 11:20:20;;;;;;;6.05;2.42;;;;;;;16.92;40.80;99442.72;5027130;28;20040;-59
2023/01/18 11:23:00;;;;;;;2.83;2.42;;;;;;;16.92;41.06;99448.91;5026759;28;20029;-59
2023/01/18 11:25:48;;;;;;;3.05;2.65;;;;;;;16.91;41.04;99449.13;5026008;28;20057;-59
2023/01/18 11:28:21;;;;;;;3.10;2.55;;;;;;;16.92;41.11;99443.53;5021393;28;20029;-59
2023/01/18 11:30:59;;;;;;;3.75;2.45;;;;;;;16.94;41.27;99443.34;5008982;28;20025;-59
2023/01/18 11:33:25;;;;;;;3.35;2.80;;;;;;;16.97;41.02;99442.97;5023654;28;20045;-58
2023/01/18 11:35:53;;;;;;;3.80;2.65;;;;;;;16.97;41.35;99446.47;4988311;28;20040;-59
2023/01/18 11:38:18;;;;;;;2.97;2.20;;;;;;;16.98;41.38;99448.13;4989244;28;20439;-59
2023/01/18 11:40:43;;;;;;;3.95;2.40;;;;;;;16.99;41.62;99443.59;5007178;28;20026;-59
2023/01/18 11:43:18;;;;;;;3.25;2.50;;;;;;;17.00;41.60;99445.28;5006797;28;20109;-57
2023/01/18 11:45:58;;;;;;;2.97;2.45;;;;;;;17.01;41.76;99443.41;5003640;28;20024;-59
2023/01/18 11:49:01;;;;;;;4.13;2.75;;;;;;;17.03;41.60;99438.69;5000713;28;20577;-59
2023/01/18 11:51:37;;;;;;;3.53;2.63;;;;;;;17.05;41.69;99444.69;4921002;29;20108;-64
2023/01/18 11:54:12;;;;;;;3.13;2.22;;;;;;;17.11;41.75;99441.25;4937632;29;20083;-64
2023/01/18 11:56:49;;;;;;;3.35;2.38;;;;;;;17.15;41.66;99445.19;4910367;29;20046;-61
2023/01/18 11:59:24;;;;;;;2.58;2.00;;;;;;;17.17;41.54;99441.31;4925644;29;20036;-65
2023/01/18 12:02:17;;;;;;;4.38;2.35;;;;;;;17.20;41.45;99440.06;4909743;29;20068;-65
2023/01/18 12:04:54;;;;;;;2.83;2.13;;;;;;;17.24;41.61;99442.19;4924855;29;20063;-63
2023/01/18 12:07:29;;;;;;;2.53;2.25;;;;;;;17.26;41.66;99446.56;4926515;29;20020;-60
2023/01/18 12:09:56;;;;;;;3.00;2.35;;;;;;;17.28;41.43;99441.81;4931595;29;20032;-60
2023/01/18 12:13:14;;;;;;;2.30;2.10;;;;;;;17.28;41.66;99448.00;4908492;29;20042;-62
2023/01/18 12:15:56;;;;;;;3.75;2.35;;;;;;;17.33;41.50;99450.09;4876650;29;20127;-61
2023/01/18 12:18:54;;;;;;;3.22;2.13;;;;;;;17.35;41.62;99456.13;4879372;29;20040;-62